Time;durP1;ratioP1;P1;durP2;ratioP2;P2;SDS_P1;SDS_P2;PMS_P1;PMS_P2;Temp;Humidity;BMP_temperature;BMP_pressure;BME280_temperature;BME280_humidity;BME280_pressure;Samples;Min_cycle;Max_cycle;Signal;HPM_P1;HPM_P2
2022/04/06 00:01:38;;;;;;;4.68;4.20;;;;;;;;;;5103393;28;20200;-68
2022/04/06 00:04:04;;;;;;;4.15;3.85;;;;;;;;;;5103585;28;20196;-68
2022/04/06 00:06:30;;;;;;;4.30;3.90;;;;;;;;;;5103125;28;20219;-68
2022/04/06 00:08:57;;;;;;;4.82;4.43;;;;;;;;;;5103356;28;20195;-68
2022/04/06 00:11:23;;;;;;;4.50;4.20;;;;;;;;;;5103158;28;20249;-68
2022/04/06 00:13:50;;;;;;;4.82;4.43;;;;;;;;;;5103463;28;20554;-68
2022/04/06 00:16:17;;;;;;;4.55;4.25;;;;;;;;;;5102918;28;20233;-68
2022/04/06 00:18:43;;;;;;;5.05;4.47;;;;;;;;;;5103475;28;20199;-68
2022/04/06 00:21:11;;;;;;;4.07;3.60;;;;;;;;;;5103284;28;20359;-68
2022/04/06 00:23:37;;;;;;;4.43;4.00;;;;;;;;;;5103589;28;20234;-68
2022/04/06 00:26:04;;;;;;;10.43;4.00;;;;;;;;;;5102745;28;20195;-68
2022/04/06 00:28:30;;;;;;;4.82;4.03;;;;;;;;;;5103282;28;20203;-68
2022/04/06 00:30:56;;;;;;;4.40;4.10;;;;;;;;;;5102931;28;20250;-68
2022/04/06 00:33:24;;;;;;;4.88;4.47;;;;;;;;;;5103321;28;20196;-68
2022/04/06 00:35:50;;;;;;;4.80;4.40;;;;;;;;;;5102908;28;20506;-68
2022/04/06 00:38:17;;;;;;;4.68;4.28;;;;;;;;;;5102654;28;20200;-68
2022/04/06 00:40:43;;;;;;;4.43;4.13;;;;;;;;;;5102677;28;20229;-68
2022/04/06 00:43:11;;;;;;;3.42;3.33;;;;;;;;;;5102904;28;20195;-68
2022/04/06 00:45:38;;;;;;;4.05;3.83;;;;;;;;;;5102986;28;20256;-68
2022/04/06 00:48:05;;;;;;;4.05;3.83;;;;;;;;;;5102032;28;20195;-68
2022/04/06 00:50:33;;;;;;;4.43;4.00;;;;;;;;;;5102579;28;20195;-68
2022/04/06 00:52:59;;;;;;;3.90;3.70;;;;;;;;;;5102723;28;20195;-68
2022/04/06 00:55:26;;;;;;;4.22;3.92;;;;;;;;;;5102558;28;20204;-68
2022/04/06 00:57:53;;;;;;;4.18;3.75;;;;;;;;;;5102460;28;20196;-68
2022/04/06 01:00:19;;;;;;;5.82;3.83;;;;;;;;;;5102364;28;20200;-68
2022/04/06 01:02:45;;;;;;;4.18;3.88;;;;;;;;;;5102658;28;20510;-68
2022/04/06 01:05:13;;;;;;;4.10;3.70;;;;;;;;;;5102287;28;20223;-68
2022/04/06 01:07:41;;;;;;;4.50;4.10;;;;;;;;;;5102143;28;20566;-68
2022/04/06 01:10:07;;;;;;;3.90;3.60;;;;;;;;;;5102682;28;20195;-68
2022/04/06 01:12:34;;;;;;;4.50;4.20;;;;;;;;;;5102558;28;20219;-68
2022/04/06 01:15:00;;;;;;;4.57;4.18;;;;;;;;;;5102443;28;20240;-68
2022/04/06 01:17:32;;;;;;;4.25;3.95;;;;;;;;;;5102251;28;20477;-68
2022/04/06 01:20:00;;;;;;;4.45;4.18;;;;;;;;;;5102355;28;20195;-68
2022/04/06 01:22:28;;;;;;;4.30;3.90;;;;;;;;;;5102139;28;20496;-68
2022/04/06 01:24:54;;;;;;;3.58;3.38;;;;;;;;;;5102449;28;20241;-68
2022/04/06 01:27:20;;;;;;;4.00;3.63;;;;;;;;;;5102173;28;20199;-68
2022/04/06 01:29:47;;;;;;;3.80;3.60;;;;;;;;;;5102273;28;20242;-68
2022/04/06 01:32:14;;;;;;;5.82;3.78;;;;;;;;;;5102190;28;20252;-68
2022/04/06 01:34:41;;;;;;;3.85;3.50;;;;;;;;;;5102183;28;20200;-68
2022/04/06 01:37:08;;;;;;;3.15;3.05;;;;;;;;;;5101860;28;20195;-68
2022/04/06 01:39:36;;;;;;;4.22;3.92;;;;;;;;;;5102290;28;20200;-68
2022/04/06 01:42:05;;;;;;;3.85;3.60;;;;;;;;;;5102207;28;20317;-68
2022/04/06 01:44:32;;;;;;;4.03;3.58;;;;;;;;;;5102066;28;20196;-68
2022/04/06 01:46:58;;;;;;;4.18;3.88;;;;;;;;;;5101254;28;20376;-68
2022/04/06 01:52:15;;;;;;;4.03;3.78;;;;;;;;;;5102161;28;20222;-68
2022/04/06 01:54:44;;;;;;;4.35;3.80;;;;;;;;;;5102426;28;20203;-68
2022/04/06 01:57:10;;;;;;;4.20;3.90;;;;;;;;;;5101622;28;20455;-68
2022/04/06 01:59:36;;;;;;;3.63;3.42;;;;;;;;;;5102612;28;20215;-68
2022/04/06 02:02:04;;;;;;;3.83;3.53;;;;;;;;;;5105781;28;20192;-68
2022/04/06 02:04:31;;;;;;;3.75;3.50;;;;;;;;;;5105656;28;20196;-68
2022/04/06 02:06:57;;;;;;;4.10;3.75;;;;;;;;;;5105490;28;20216;-68
2022/04/06 02:09:23;;;;;;;3.22;3.03;;;;;;;;;;5105662;28;20390;-68
2022/04/06 02:11:51;;;;;;;3.97;3.78;;;;;;;;;;5105447;28;20413;-68
2022/04/06 02:14:17;;;;;;;4.28;3.95;;;;;;;;;;5105793;28;20257;-68
2022/04/06 02:16:44;;;;;;;4.00;3.85;;;;;;;;;;5105508;28;20203;-68
2022/04/06 02:19:10;;;;;;;4.20;4.00;;;;;;;;;;5105519;28;20196;-68
2022/04/06 02:21:36;;;;;;;4.25;3.95;;;;;;;;;;5105546;28;20192;-68
2022/04/06 02:24:03;;;;;;;5.30;4.35;;;;;;;;;;5105475;28;20221;-68
2022/04/06 02:26:29;;;;;;;6.10;4.32;;;;;;;;;;5104990;28;20204;-68
2022/04/06 02:28:59;;;;;;;4.60;4.20;;;;;;;;;;5105583;28;20199;-68
2022/04/06 02:31:25;;;;;;;5.20;4.75;;;;;;;;;;5105389;28;20215;-68
2022/04/06 02:33:51;;;;;;;5.10;4.60;;;;;;;;;;5105202;28;20530;-68
2022/04/06 02:36:18;;;;;;;7.55;5.43;;;;;;;;;;5105009;28;20203;-67
2022/04/06 02:38:44;;;;;;;5.95;5.35;;;;;;;;;;5105050;28;20204;-68
2022/04/06 02:41:11;;;;;;;6.63;5.22;;;;;;;;;;5105182;28;20199;-68
2022/04/06 02:43:37;;;;;;;5.35;4.85;;;;;;;;;;5104993;28;20196;-68
2022/04/06 02:46:05;;;;;;;5.63;5.13;;;;;;;;;;5105011;28;20419;-68
2022/04/06 02:48:31;;;;;;;5.60;4.55;;;;;;;;;;5104907;28;20195;-68
2022/04/06 02:50:57;;;;;;;5.43;4.93;;;;;;;;;;5104790;28;20204;-68
2022/04/06 02:53:24;;;;;;;6.38;5.47;;;;;;;;;;5105008;28;20200;-68
2022/04/06 02:55:50;;;;;;;5.95;5.25;;;;;;;;;;5104613;28;20211;-68
2022/04/06 02:58:16;;;;;;;5.55;5.10;;;;;;;;;;5104946;28;20412;-68
2022/04/06 03:00:43;;;;;;;7.57;4.95;;;;;;;;;;5104671;28;20210;-68
2022/04/06 03:03:10;;;;;;;7.28;4.88;;;;;;;;;;5104790;28;20191;-68
2022/04/06 03:05:39;;;;;;;8.70;5.75;;;;;;;;;;5104650;28;20241;-68
2022/04/06 03:08:06;;;;;;;5.53;5.07;;;;;;;;;;5104172;28;20472;-67
2022/04/06 03:10:32;;;;;;;5.55;5.18;;;;;;;;;;5104106;28;20206;-68
2022/04/06 03:12:58;;;;;;;5.57;5.07;;;;;;;;;;5104568;28;20557;-67
2022/04/06 03:15:24;;;;;;;6.00;5.50;;;;;;;;;;5104559;28;20699;-68
2022/04/06 03:17:51;;;;;;;6.55;5.97;;;;;;;;;;5104241;28;20332;-68
2022/04/06 03:20:18;;;;;;;7.82;5.63;;;;;;;;;;5104347;28;20195;-68
2022/04/06 03:22:44;;;;;;;6.85;6.00;;;;;;;;;;5104191;28;20199;-68
2022/04/06 03:25:11;;;;;;;5.60;5.10;;;;;;;;;;5104411;28;20204;-67
2022/04/06 03:27:37;;;;;;;6.68;4.78;;;;;;;;;;5104054;28;20503;-67
2022/04/06 03:30:04;;;;;;;8.73;5.10;;;;;;;;;;5104227;28;20195;-68
2022/04/06 03:32:30;;;;;;;5.93;5.40;;;;;;;;;;5103998;28;20527;-68
2022/04/06 03:34:57;;;;;;;6.30;5.72;;;;;;;;;;5104021;28;20511;-68
2022/04/06 03:37:25;;;;;;;7.13;5.75;;;;;;;;;;5103719;28;20231;-68
2022/04/06 03:39:51;;;;;;;6.40;5.80;;;;;;;;;;5104023;28;20200;-68
2022/04/06 03:42:17;;;;;;;6.30;5.55;;;;;;;;;;5103881;28;20207;-68
2022/04/06 03:44:44;;;;;;;9.38;6.30;;;;;;;;;;5103789;28;20203;-68
2022/04/06 03:47:10;;;;;;;6.10;5.60;;;;;;;;;;5103367;28;20203;-68
2022/04/06 03:49:36;;;;;;;6.93;5.57;;;;;;;;;;5104024;28;20200;-68
2022/04/06 03:52:03;;;;;;;8.13;5.53;;;;;;;;;;5104028;28;20237;-68
2022/04/06 03:54:30;;;;;;;5.93;5.43;;;;;;;;;;5103695;28;20196;-68
2022/04/06 03:56:57;;;;;;;7.53;5.95;;;;;;;;;;5103176;28;20211;-68
2022/04/06 03:59:23;;;;;;;6.43;5.82;;;;;;;;;;5103397;28;20277;-68
2022/04/06 04:01:49;;;;;;;6.25;5.65;;;;;;;;;;5103306;28;20192;-68
2022/04/06 04:04:15;;;;;;;5.93;5.43;;;;;;;;;;5103124;28;20196;-68
2022/04/06 04:06:42;;;;;;;6.20;5.60;;;;;;;;;;5102958;28;20220;-67
2022/04/06 04:09:08;;;;;;;6.25;5.75;;;;;;;;;;5103402;28;20203;-67
2022/04/06 04:11:36;;;;;;;7.07;5.93;;;;;;;;;;5103072;28;20202;-68
2022/04/06 04:14:02;;;;;;;5.88;5.43;;;;;;;;;;5103102;28;20203;-68
2022/04/06 04:16:28;;;;;;;6.22;5.63;;;;;;;;;;5102827;28;20202;-68
2022/04/06 04:18:54;;;;;;;5.88;5.38;;;;;;;;;;5102970;28;20393;-68
2022/04/06 04:21:33;;;;;;;7.15;5.55;;;;;;;;;;5103189;28;20499;-68
2022/04/06 04:23:59;;;;;;;6.13;5.57;;;;;;;;;;5102389;28;20204;-68
2022/04/06 04:26:25;;;;;;;6.35;5.75;;;;;;;;;;5102749;28;20196;-68
2022/04/06 04:28:53;;;;;;;6.03;4.93;;;;;;;;;;5102785;28;20410;-68
2022/04/06 04:31:19;;;;;;;7.97;5.07;;;;;;;;;;5102674;28;20199;-68
2022/04/06 04:33:46;;;;;;;6.32;5.82;;;;;;;;;;5102909;28;20223;-69
2022/04/06 04:36:12;;;;;;;5.07;4.75;;;;;;;;;;5102645;28;20206;-69
2022/04/06 04:38:38;;;;;;;7.65;5.00;;;;;;;;;;5102963;28;20199;-69
2022/04/06 04:41:06;;;;;;;5.47;5.05;;;;;;;;;;5102756;28;20203;-69
2022/04/06 04:43:32;;;;;;;5.25;4.85;;;;;;;;;;5102661;28;20192;-69
2022/04/06 04:46:00;;;;;;;5.93;5.45;;;;;;;;;;5102119;28;20202;-69
2022/04/06 04:48:26;;;;;;;5.70;5.07;;;;;;;;;;5102666;28;20200;-69
2022/04/06 04:50:53;;;;;;;6.22;5.10;;;;;;;;;;5102997;28;20222;-69
2022/04/06 04:53:19;;;;;;;5.32;5.03;;;;;;;;;;5102608;28;20549;-69
2022/04/06 04:55:45;;;;;;;5.40;4.90;;;;;;;;;;5102457;28;20199;-69
2022/04/06 04:58:11;;;;;;;5.05;4.75;;;;;;;;;;5102070;28;20196;-69
2022/04/06 05:00:38;;;;;;;5.75;5.22;;;;;;;;;;5102200;28;20279;-69
2022/04/06 05:03:05;;;;;;;9.43;5.30;;;;;;;;;;5102423;28;20500;-69
2022/04/06 05:05:31;;;;;;;5.55;4.90;;;;;;;;;;5102795;28;20222;-70
2022/04/06 05:07:59;;;;;;;5.75;5.35;;;;;;;;;;5102247;28;20195;-69
2022/04/06 05:10:25;;;;;;;5.72;5.22;;;;;;;;;;5102148;28;20219;-69
2022/04/06 05:12:52;;;;;;;5.38;4.97;;;;;;;;;;5102230;28;20212;-69
2022/04/06 05:15:19;;;;;;;5.40;4.90;;;;;;;;;;5102388;28;20241;-69
2022/04/06 05:17:45;;;;;;;5.93;5.40;;;;;;;;;;5102029;28;20437;-69
2022/04/06 05:20:13;;;;;;;8.00;5.43;;;;;;;;;;5102121;28;20241;-69
2022/04/06 05:22:40;;;;;;;6.18;5.57;;;;;;;;;;5102188;28;20277;-69
2022/04/06 05:25:08;;;;;;;5.63;5.13;;;;;;;;;;5101949;28;20192;-69
2022/04/06 05:27:43;;;;;;;7.22;5.80;;;;;;;;;;5102249;28;20211;-69
2022/04/06 05:30:10;;;;;;;5.13;4.82;;;;;;;;;;5102072;28;20239;-69
2022/04/06 05:32:36;;;;;;;5.10;4.70;;;;;;;;;;5102339;28;20600;-69
2022/04/06 05:35:03;;;;;;;5.93;5.47;;;;;;;;;;5105370;28;20371;-69
2022/04/06 05:37:33;;;;;;;6.03;5.32;;;;;;;;;;5106025;28;20206;-69
2022/04/06 05:40:00;;;;;;;5.63;5.13;;;;;;;;;;5105879;28;20195;-69
2022/04/06 05:42:26;;;;;;;6.28;5.13;;;;;;;;;;5105810;28;20199;-69
2022/04/06 05:44:52;;;;;;;5.95;5.35;;;;;;;;;;5105836;28;20241;-70
2022/04/06 05:47:19;;;;;;;9.85;5.18;;;;;;;;;;5105134;28;20549;-69
2022/04/06 05:49:45;;;;;;;5.38;5.07;;;;;;;;;;5105621;28;20207;-69
2022/04/06 05:52:11;;;;;;;5.30;4.90;;;;;;;;;;5105351;28;20405;-69
2022/04/06 05:54:39;;;;;;;7.55;5.10;;;;;;;;;;5105340;28;20492;-69
2022/04/06 05:57:05;;;;;;;6.07;5.50;;;;;;;;;;5105089;28;20218;-69
2022/04/06 05:59:31;;;;;;;4.85;4.55;;;;;;;;;;5105046;28;20196;-69
2022/04/06 06:01:58;;;;;;;5.45;5.05;;;;;;;;;;5105352;28;20487;-69
2022/04/06 06:04:24;;;;;;;5.53;5.05;;;;;;;;;;5105257;28;20202;-69
2022/04/06 06:06:50;;;;;;;5.00;4.50;;;;;;;;;;5104193;28;20449;-69
2022/04/06 06:09:16;;;;;;;7.22;4.80;;;;;;;;;;5104026;28;20195;-69
2022/04/06 06:11:44;;;;;;;6.15;4.75;;;;;;;;;;5105339;28;20261;-69
2022/04/06 06:14:10;;;;;;;5.70;4.65;;;;;;;;;;5104632;28;20250;-69
2022/04/06 06:16:37;;;;;;;5.40;4.90;;;;;;;;;;5104824;28;20196;-69
2022/04/06 06:19:03;;;;;;;4.47;4.28;;;;;;;;;;5104973;28;20407;-69
2022/04/06 06:21:32;;;;;;;5.07;4.70;;;;;;;;;;5104816;28;20200;-69
2022/04/06 06:23:59;;;;;;;5.43;4.45;;;;;;;;;;5104707;28;20536;-69
2022/04/06 06:26:25;;;;;;;4.88;4.53;;;;;;;;;;5104790;28;20388;-69
2022/04/06 06:28:53;;;;;;;5.53;4.05;;;;;;;;;;5104767;28;20199;-69
2022/04/06 06:31:19;;;;;;;4.80;4.50;;;;;;;;;;5104752;28;20195;-69
2022/04/06 06:33:45;;;;;;;4.60;4.20;;;;;;;;;;5104640;28;20220;-69
2022/04/06 06:36:12;;;;;;;4.30;3.97;;;;;;;;;;5104452;28;20561;-69
2022/04/06 06:38:38;;;;;;;4.82;4.30;;;;;;;;;;5104538;28;20203;-69
2022/04/06 06:41:04;;;;;;;5.85;3.88;;;;;;;;;;5104817;28;20204;-69
2022/04/06 06:43:31;;;;;;;4.43;4.03;;;;;;;;;;5104545;28;20198;-69
2022/04/06 06:45:58;;;;;;;4.40;4.10;;;;;;;;;;5103433;28;20241;-62
2022/04/06 06:48:24;;;;;;;6.43;4.78;;;;;;;;;;5085102;28;20208;-62
2022/04/06 06:50:51;;;;;;;4.25;3.85;;;;;;;;;;5093368;28;20220;-61
2022/04/06 06:53:17;;;;;;;4.50;3.92;;;;;;;;;;5098871;28;20223;-61
2022/04/06 06:55:43;;;;;;;4.15;3.70;;;;;;;;;;5099019;28;20372;-61
2022/04/06 06:58:10;;;;;;;3.92;3.63;;;;;;;;;;5097565;28;20230;-62
2022/04/06 07:00:36;;;;;;;3.50;3.20;;;;;;;;;;5098332;28;20219;-61
2022/04/06 07:03:04;;;;;;;3.38;3.08;;;;;;;;;;5096689;28;20208;-63
2022/04/06 07:05:30;;;;;;;6.72;3.10;;;;;;;;;;5098610;28;20231;-63
2022/04/06 07:07:57;;;;;;;3.25;3.03;;;;;;;;;;5098340;28;20215;-62
2022/04/06 07:10:25;;;;;;;3.50;3.20;;;;;;;;;;5097578;28;20216;-62
2022/04/06 07:12:51;;;;;;;2.95;2.85;;;;;;;;;;5098203;28;20228;-62
2022/04/06 07:15:18;;;;;;;2.78;2.53;;;;;;;;;;5098532;28;20212;-62
2022/04/06 07:17:44;;;;;;;2.28;2.17;;;;;;;;;;5097657;28;20445;-62
2022/04/06 07:20:12;;;;;;;2.42;2.33;;;;;;;;;;5098210;28;20228;-62
2022/04/06 07:22:38;;;;;;;1.73;1.73;;;;;;;;;;5098214;28;20214;-62
2022/04/06 07:25:05;;;;;;;2.47;1.70;;;;;;;;;;5097878;28;20685;-62
2022/04/06 07:27:35;;;;;;;2.00;1.77;;;;;;;;;;5097414;28;20207;-62
2022/04/06 07:30:01;;;;;;;1.85;1.73;;;;;;;;;;5097573;28;20203;-62
2022/04/06 07:32:28;;;;;;;1.70;1.67;;;;;;;;;;5097813;28;20207;-63
2022/04/06 07:34:54;;;;;;;3.95;1.60;;;;;;;;;;5097637;28;20207;-62
2022/04/06 07:37:22;;;;;;;2.13;1.95;;;;;;;;;;5097427;28;20230;-62
2022/04/06 07:39:48;;;;;;;1.80;1.70;;;;;;;;;;5097392;28;20378;-61
2022/04/06 07:42:15;;;;;;;1.38;1.27;;;;;;;;;;5097728;28;20542;-61
2022/04/06 07:44:41;;;;;;;2.03;1.70;;;;;;;;;;5097667;28;20523;-62
2022/04/06 07:47:07;;;;;;;1.70;1.60;;;;;;;;;;5097668;28;20207;-61
2022/04/06 07:49:33;;;;;;;2.20;2.00;;;;;;;;;;5097405;28;20526;-61
2022/04/06 07:52:00;;;;;;;1.92;1.83;;;;;;;;;;5097845;28;20444;-61
2022/04/06 07:54:27;;;;;;;1.83;1.80;;;;;;;;;;5097437;28;20253;-60
2022/04/06 07:56:54;;;;;;;2.50;2.30;;;;;;;;;;5097196;28;20246;-60
2022/04/06 07:59:20;;;;;;;1.70;1.70;;;;;;;;;;5096785;28;20207;-60
2022/04/06 08:01:46;;;;;;;1.52;1.52;;;;;;;;;;5097070;28;20215;-61
2022/04/06 08:04:12;;;;;;;1.85;1.85;;;;;;;;;;5097244;28;20211;-61
2022/04/06 08:06:39;;;;;;;1.70;1.50;;;;;;;;;;5096587;28;20423;-60
2022/04/06 08:09:06;;;;;;;1.60;1.60;;;;;;;;;;5096799;28;20299;-61
2022/04/06 08:11:34;;;;;;;1.48;1.48;;;;;;;;;;5096968;28;20411;-60
2022/04/06 08:14:00;;;;;;;3.38;2.05;;;;;;;;;;5097265;28;20239;-61
2022/04/06 08:16:28;;;;;;;2.83;2.03;;;;;;;;;;5096933;28;20261;-61
2022/04/06 08:18:54;;;;;;;2.15;2.00;;;;;;;;;;5096633;28;20515;-60
2022/04/06 08:21:21;;;;;;;1.50;1.50;;;;;;;;;;5097021;28;20210;-60
2022/04/06 08:23:47;;;;;;;2.30;2.10;;;;;;;;;;5096932;28;20518;-60
2022/04/06 08:26:13;;;;;;;1.60;1.60;;;;;;;;;;5096714;28;20208;-63
2022/04/06 08:28:41;;;;;;;2.38;1.50;;;;;;;;;;5096292;28;20208;-62
2022/04/06 08:31:07;;;;;;;2.72;1.67;;;;;;;;;;5096592;28;20216;-63
2022/04/06 08:33:34;;;;;;;1.52;1.52;;;;;;;;;;5096688;28;20235;-63
2022/04/06 08:36:03;;;;;;;1.25;1.25;;;;;;;;;;5096867;28;20222;-63
2022/04/06 08:38:29;;;;;;;1.80;1.70;;;;;;;;;;5096559;28;20235;-63
2022/04/06 08:40:56;;;;;;;1.70;1.70;;;;;;;;;;5097124;28;20211;-63
2022/04/06 08:43:23;;;;;;;4.05;2.00;;;;;;;;;;5096825;28;20534;-62
2022/04/06 08:45:51;;;;;;;2.25;1.80;;;;;;;;;;5097214;28;20438;-62
2022/04/06 08:48:17;;;;;;;1.67;1.67;;;;;;;;;;5096315;28;21200;-63
2022/04/06 08:50:45;;;;;;;1.45;1.45;;;;;;;;;;5096615;28;20208;-62
2022/04/06 08:53:12;;;;;;;1.60;1.50;;;;;;;;;;5097404;28;20539;-63
2022/04/06 08:55:38;;;;;;;2.28;1.50;;;;;;;;;;5097090;28;20211;-63
2022/04/06 08:58:05;;;;;;;1.40;1.40;;;;;;;;;;5095721;28;20237;-63
2022/04/06 09:00:31;;;;;;;2.75;1.30;;;;;;;;;;5095987;28;20222;-62
2022/04/06 09:02:59;;;;;;;1.27;1.27;;;;;;;;;;5096301;28;20207;-63
2022/04/06 09:05:28;;;;;;;2.08;1.15;;;;;;;;;;5096422;28;20423;-62
2022/04/06 09:07:54;;;;;;;1.30;1.25;;;;;;;;;;5095735;28;20214;-62
2022/04/06 09:10:28;;;;;;;2.80;1.30;;;;;;;;;;5096161;28;20435;-62
2022/04/06 09:13:06;;;;;;;1.52;1.42;;;;;;;;;;5096350;28;20538;-63
2022/04/06 09:15:32;;;;;;;0.98;0.98;;;;;;;;;;5096122;28;20207;-61
2022/04/06 09:18:01;;;;;;;1.00;1.00;;;;;;;;;;5095545;28;20219;-61
2022/04/06 09:20:27;;;;;;;1.00;1.00;;;;;;;;;;5096118;28;20519;-62
2022/04/06 09:22:53;;;;;;;2.45;1.25;;;;;;;;;;5096177;28;20295;-62
2022/04/06 09:25:20;;;;;;;0.90;0.90;;;;;;;;;;5096110;28;20211;-62
2022/04/06 09:27:46;;;;;;;2.65;1.23;;;;;;;;;;5096143;28;20496;-62
2022/04/06 09:30:13;;;;;;;1.02;0.90;;;;;;;;;;5095939;28;20199;-61
2022/04/06 09:32:41;;;;;;;0.90;0.90;;;;;;;;;;5096113;28;20542;-62
2022/04/06 09:35:22;;;;;;;1.13;0.95;;;;;;;;;;5096072;28;20604;-61
2022/04/06 09:37:50;;;;;;;1.30;1.20;;;;;;;;;;5095456;28;20215;-62
2022/04/06 09:40:16;;;;;;;0.93;0.90;;;;;;;;;;5096117;28;20282;-62
2022/04/06 09:42:50;;;;;;;1.75;0.80;;;;;;;;;;5096188;28;20415;-61
2022/04/06 09:48:11;;;;;;;0.70;0.70;;;;;;;;;;5095527;28;20564;-60
2022/04/06 09:50:38;;;;;;;2.15;0.85;;;;;;;;;;5095554;28;20533;-61
2022/04/06 09:53:07;;;;;;;0.68;0.68;;;;;;;;;;5095585;28;20203;-62
2022/04/06 09:55:33;;;;;;;2.50;0.60;;;;;;;;;;5095580;28;20208;-62
2022/04/06 09:58:01;;;;;;;0.77;0.77;;;;;;;;;;5095376;28;20526;-61
2022/04/06 10:00:29;;;;;;;1.55;0.80;;;;;;;;;;5095414;28;20212;-61
2022/04/06 10:03:00;;;;;;;0.50;0.50;;;;;;;;;;5095707;28;20208;-61
2022/04/06 10:05:28;;;;;;;3.15;0.55;;;;;;;;;;5095708;28;20567;-61
2022/04/06 10:07:55;;;;;;;0.70;0.50;;;;;;;;;;5095381;28;20214;-61
2022/04/06 10:10:23;;;;;;;1.77;0.73;;;;;;;;;;5095790;28;20586;-62
2022/04/06 10:12:49;;;;;;;1.55;0.70;;;;;;;;;;5096089;28;20211;-61
2022/04/06 10:15:16;;;;;;;0.93;0.50;;;;;;;;;;5096246;28;20220;-62
2022/04/06 10:17:42;;;;;;;0.50;0.50;;;;;;;;;;5096218;28;20445;-62
2022/04/06 10:20:20;;;;;;;1.08;0.60;;;;;;;;;;5095579;28;20211;-62
2022/04/06 10:22:51;;;;;;;0.80;0.80;;;;;;;;;;5099094;28;20212;-62
2022/04/06 10:25:19;;;;;;;1.30;1.30;;;;;;;;;;5099265;28;20261;-62
2022/04/06 10:27:49;;;;;;;4.47;0.88;;;;;;;;;;5098432;28;20208;-59
2022/04/06 10:30:16;;;;;;;0.60;0.50;;;;;;;;;;5098563;28;20212;-61
2022/04/06 10:32:44;;;;;;;1.75;0.60;;;;;;;;;;5098784;28;20388;-60
2022/04/06 10:35:24;;;;;;;0.60;0.60;;;;;;;;;;5098853;28;20223;-60
2022/04/06 10:37:51;;;;;;;0.45;0.45;;;;;;;;;;5098400;28;20369;-61
2022/04/06 10:40:17;;;;;;;1.15;0.50;;;;;;;;;;5098662;28;20241;-65
2022/04/06 10:42:45;;;;;;;0.73;0.60;;;;;;;;;;5098653;28;20207;-62
2022/04/06 10:45:45;;;;;;;0.60;0.60;;;;;;;;;;5098752;28;20251;-63
2022/04/06 10:48:18;;;;;;;3.60;0.60;;;;;;;;;;5035600;28;20216;-64
2022/04/06 10:50:45;;;;;;;0.60;0.60;;;;;;;;;;5035930;28;20214;-63
2022/04/06 10:53:27;;;;;;;0.57;0.50;;;;;;;;;;5065855;28;20212;-64
2022/04/06 10:55:57;;;;;;;0.45;0.45;;;;;;;;;;5098624;28;20230;-64
2022/04/06 10:58:24;;;;;;;0.45;0.45;;;;;;;;;;5098270;28;20298;-64
2022/04/06 11:01:05;;;;;;;0.63;0.57;;;;;;;;;;5098447;28;20245;-63
2022/04/06 11:03:35;;;;;;;2.05;0.43;;;;;;;;;;5098743;28;20212;-63
2022/04/06 11:06:01;;;;;;;1.63;0.40;;;;;;;;;;5098838;28;20263;-63
2022/04/06 11:11:45;;;;;;;0.50;0.50;;;;;;;;;;5098659;28;20669;-62
2022/04/06 11:14:11;;;;;;;0.50;0.50;;;;;;;;;;5097980;28;20234;-62
2022/04/06 11:16:42;;;;;;;0.68;0.50;;;;;;;;;;5098678;28;20467;-63
2022/04/06 11:19:09;;;;;;;0.30;0.30;;;;;;;;;;5098011;28;20467;-63
2022/04/06 11:21:45;;;;;;;0.68;0.40;;;;;;;;;;5098705;28;20215;-62
2022/04/06 11:24:11;;;;;;;0.40;0.40;;;;;;;;;;5098463;28;20437;-62
2022/04/06 11:26:38;;;;;;;0.57;0.57;;;;;;;;;;5098192;28;20212;-62
2022/04/06 11:29:04;;;;;;;0.80;0.40;;;;;;;;;;5098062;28;20447;-62
2022/04/06 11:31:30;;;;;;;0.30;0.30;;;;;;;;;;5097918;28;20449;-63
2022/04/06 11:33:57;;;;;;;1.35;0.43;;;;;;;;;;5098404;28;20535;-63
2022/04/06 11:36:24;;;;;;;0.50;0.50;;;;;;;;;;5098132;28;20438;-63
2022/04/06 11:38:51;;;;;;;0.50;0.50;;;;;;;;;;5098445;28;20407;-63
2022/04/06 11:41:18;;;;;;;1.20;0.80;;;;;;;;;;5098687;28;20199;-63
2022/04/06 11:43:44;;;;;;;0.40;0.40;;;;;;;;;;5098392;28;20207;-63
2022/04/06 11:46:10;;;;;;;0.82;0.43;;;;;;;;;;5098151;28;20207;-63
2022/04/06 11:48:40;;;;;;;0.40;0.40;;;;;;;;;;5097787;28;20519;-62
2022/04/06 11:51:06;;;;;;;1.85;0.43;;;;;;;;;;5097812;28;20527;-62
2022/04/06 11:53:34;;;;;;;0.40;0.40;;;;;;;;;;5097540;28;20487;-62
2022/04/06 11:56:01;;;;;;;0.30;0.30;;;;;;;;;;5097762;28;20269;-63
2022/04/06 11:58:28;;;;;;;0.65;0.43;;;;;;;;;;5097377;28;20592;-63
2022/04/06 12:00:57;;;;;;;0.40;0.40;;;;;;;;;;5097769;28;20215;-63
2022/04/06 12:03:27;;;;;;;1.17;0.40;;;;;;;;;;5097610;28;20211;-63
2022/04/06 12:05:53;;;;;;;0.30;0.30;;;;;;;;;;5097658;28;20576;-63
2022/04/06 12:08:20;;;;;;;0.30;0.30;;;;;;;;;;5097577;28;20211;-63
2022/04/06 12:10:51;;;;;;;3.33;0.50;;;;;;;;;;5097749;28;20214;-64
2022/04/06 12:13:18;;;;;;;0.30;0.30;;;;;;;;;;5097543;28;20215;-63
2022/04/06 12:15:45;;;;;;;0.40;0.30;;;;;;;;;;5098054;28;20219;-63
2022/04/06 12:18:11;;;;;;;0.40;0.40;;;;;;;;;;5097380;28;20515;-62
2022/04/06 12:20:37;;;;;;;0.73;0.40;;;;;;;;;;5097873;28;20538;-63
2022/04/06 12:23:05;;;;;;;1.27;0.38;;;;;;;;;;5097562;28;20514;-63
2022/04/06 12:25:32;;;;;;;2.58;0.30;;;;;;;;;;5097717;28;20211;-62
2022/04/06 12:28:13;;;;;;;3.88;0.50;;;;;;;;;;5096873;28;20515;-63
2022/04/06 12:30:56;;;;;;;1.02;0.40;;;;;;;;;;5097843;28;20207;-63
2022/04/06 12:33:38;;;;;;;1.75;0.30;;;;;;;;;;5097295;28;20214;-64
2022/04/06 12:36:05;;;;;;;0.30;0.30;;;;;;;;;;5097099;28;20220;-64
2022/04/06 12:38:31;;;;;;;0.20;0.20;;;;;;;;;;5096833;28;20253;-63
2022/04/06 12:41:03;;;;;;;1.80;0.40;;;;;;;;;;5096613;28;20211;-63
2022/04/06 12:43:31;;;;;;;1.77;0.43;;;;;;;;;;5095880;28;20460;-63
2022/04/06 12:45:57;;;;;;;0.32;0.32;;;;;;;;;;5096927;28;20204;-63
2022/04/06 12:48:23;;;;;;;0.30;0.30;;;;;;;;;;5096713;28;20543;-63
2022/04/06 12:50:49;;;;;;;0.22;0.22;;;;;;;;;;5096933;28;20538;-63
2022/04/06 12:53:16;;;;;;;0.17;0.17;;;;;;;;;;5096935;28;20515;-63
2022/04/06 12:55:44;;;;;;;0.15;0.15;;;;;;;;;;5096600;28;20228;-63
2022/04/06 12:58:14;;;;;;;0.30;0.30;;;;;;;;;;5096542;28;20208;-63
2022/04/06 13:00:41;;;;;;;0.30;0.30;;;;;;;;;;5096669;28;20215;-63
2022/04/06 13:03:09;;;;;;;1.60;0.20;;;;;;;;;;5096841;28;20283;-63
2022/04/06 13:05:35;;;;;;;0.40;0.40;;;;;;;;;;5096920;28;20226;-61
2022/04/06 13:08:02;;;;;;;0.28;0.28;;;;;;;;;;5096892;28;20569;-62
2022/04/06 13:10:29;;;;;;;0.52;0.52;;;;;;;;;;5097012;28;20211;-62
2022/04/06 13:12:57;;;;;;;0.43;0.30;;;;;;;;;;5097124;28;20568;-63
2022/04/06 13:15:23;;;;;;;1.48;0.30;;;;;;;;;;5096726;28;20262;-62
2022/04/06 13:17:51;;;;;;;0.43;0.43;;;;;;;;;;5095907;28;20459;-63
2022/04/06 13:20:19;;;;;;;0.50;0.50;;;;;;;;;;5096448;28;20208;-60
2022/04/06 13:22:46;;;;;;;4.30;0.30;;;;;;;;;;5096583;28;20208;-63
2022/04/06 13:25:12;;;;;;;1.65;0.47;;;;;;;;;;5096525;28;20340;-63
2022/04/06 13:27:39;;;;;;;1.85;0.43;;;;;;;;;;5096317;28;20208;-62
2022/04/06 13:30:06;;;;;;;0.60;0.40;;;;;;;;;;5096202;28;20519;-62
2022/04/06 13:32:33;;;;;;;0.90;0.47;;;;;;;;;;5096391;28;20547;-62
2022/04/06 13:35:01;;;;;;;2.38;0.47;;;;;;;;;;5096347;28;20230;-62
2022/04/06 13:37:27;;;;;;;4.63;0.68;;;;;;;;;;5096262;28;20249;-62
2022/04/06 13:39:54;;;;;;;1.60;0.50;;;;;;;;;;5096535;28;20249;-58
2022/04/06 13:42:21;;;;;;;0.63;0.30;;;;;;;;;;5096632;28;20260;-60
2022/04/06 13:44:47;;;;;;;0.85;0.30;;;;;;;;;;5096629;28;20449;-61
2022/04/06 13:47:13;;;;;;;2.08;0.30;;;;;;;;;;5096400;28;20208;-57
2022/04/06 13:49:40;;;;;;;0.50;0.50;;;;;;;;;;5095930;28;20208;-58
2022/04/06 13:52:07;;;;;;;0.38;0.38;;;;;;;;;;5096400;28;20211;-58
2022/04/06 13:54:34;;;;;;;3.30;0.40;;;;;;;;;;5097110;28;20441;-58
2022/04/06 13:57:01;;;;;;;0.50;0.50;;;;;;;;;;5100208;28;20290;-58
2022/04/06 13:59:27;;;;;;;0.43;0.43;;;;;;;;;;5099315;28;20215;-58
2022/04/06 14:01:53;;;;;;;1.55;0.43;;;;;;;;;;5100498;28;20222;-58
2022/04/06 14:04:20;;;;;;;1.17;0.30;;;;;;;;;;5100247;28;20384;-57
2022/04/06 14:06:47;;;;;;;0.30;0.30;;;;;;;;;;5100173;28;20231;-58
2022/04/06 14:09:14;;;;;;;0.30;0.30;;;;;;;;;;5099733;28;20728;-59
2022/04/06 14:11:42;;;;;;;0.55;0.30;;;;;;;;;;5100245;28;20212;-59
2022/04/06 14:14:08;;;;;;;0.30;0.30;;;;;;;;;;5099940;28;20448;-58
2022/04/06 14:16:35;;;;;;;1.98;0.32;;;;;;;;;;5099602;28;20231;-59
2022/04/06 14:19:04;;;;;;;0.20;0.20;;;;;;;;;;5099373;28;20466;-59
2022/04/06 14:21:33;;;;;;;2.00;0.50;;;;;;;;;;5099757;28;20244;-60
2022/04/06 14:24:00;;;;;;;1.45;0.32;;;;;;;;;;5099547;28;20307;-59
2022/04/06 14:26:27;;;;;;;0.40;0.40;;;;;;;;;;5099439;28;20212;-58
2022/04/06 14:28:54;;;;;;;1.05;0.50;;;;;;;;;;5099300;28;20216;-59
2022/04/06 14:31:20;;;;;;;3.05;0.30;;;;;;;;;;5099323;28;20245;-60
2022/04/06 14:33:46;;;;;;;0.35;0.35;;;;;;;;;;5099545;28;20261;-60
2022/04/06 14:36:12;;;;;;;0.70;0.35;;;;;;;;;;5099993;28;20638;-60
2022/04/06 14:38:39;;;;;;;3.10;0.30;;;;;;;;;;5099358;28;20214;-60
2022/04/06 14:41:07;;;;;;;0.38;0.38;;;;;;;;;;5099852;28;20253;-60
2022/04/06 14:43:35;;;;;;;0.30;0.30;;;;;;;;;;5079313;28;20208;-60
2022/04/06 14:46:02;;;;;;;0.40;0.40;;;;;;;;;;5079095;28;20211;-60
2022/04/06 14:48:29;;;;;;;0.40;0.40;;;;;;;;;;5086890;28;20307;-60
2022/04/06 14:50:55;;;;;;;0.30;0.30;;;;;;;;;;5088250;28;20232;-60
2022/04/06 14:53:21;;;;;;;0.43;0.40;;;;;;;;;;5096577;28;20214;-60